createdAt,value
2018-05-12T05:21:54.151Z,94987.97
2018-05-12T05:24:22.783Z,94992.89
2018-05-12T05:26:51.342Z,94985.09
2018-05-12T05:29:19.942Z,94989.70
2018-05-12T05:31:48.518Z,94989.68
2018-05-12T05:34:17.131Z,94988.73
2018-05-12T05:36:47.816Z,94982.64
2018-05-12T05:39:18.579Z,94987.85
2018-05-12T05:41:46.537Z,94993.00
2018-05-12T05:44:15.264Z,94999.70
2018-05-12T05:46:43.835Z,95001.93
2018-05-12T05:49:12.399Z,95002.59
2018-05-12T05:51:40.971Z,94999.93
2018-05-12T05:54:09.530Z,95002.70
2018-05-12T05:56:38.119Z,95008.72
2018-05-12T05:59:06.759Z,95002.00
2018-05-12T06:01:35.332Z,95003.15
2018-05-12T06:04:03.954Z,95003.88
2018-05-12T06:06:32.568Z,95002.34
2018-05-12T06:09:01.131Z,94999.10
2018-05-12T06:11:29.716Z,95001.31
2018-05-12T06:13:58.332Z,94999.70
2018-05-12T06:16:26.902Z,94994.16
2018-05-12T06:18:55.493Z,94993.87
2018-05-12T06:21:24.116Z,95001.75
2018-05-12T06:23:52.672Z,95007.66
2018-05-12T06:26:21.248Z,95007.03
2018-05-12T06:28:49.807Z,95003.63
2018-05-12T06:31:18.418Z,94996.59
2018-05-12T06:33:47.089Z,94996.23
2018-05-12T06:36:15.649Z,94990.70
2018-05-12T06:38:44.217Z,94987.22
2018-05-12T06:41:12.788Z,94982.98
2018-05-12T06:43:41.353Z,94983.44
2018-05-12T06:46:09.974Z,94975.80
2018-05-12T06:48:38.539Z,94980.91
2018-05-12T06:51:07.319Z,94981.04
2018-05-12T06:53:35.891Z,94977.84
2018-05-12T06:56:04.123Z,94980.16
2018-05-12T06:58:32.693Z,94984.07
2018-05-12T07:01:01.267Z,94984.06
2018-05-12T07:03:29.826Z,94975.81
2018-05-12T07:05:58.430Z,94976.23
2018-05-12T07:08:34.266Z,94975.59
2018-05-12T07:11:02.883Z,94970.23
2018-05-12T07:13:31.459Z,94966.88
2018-05-12T07:16:00.078Z,94965.14
2018-05-12T07:18:29.146Z,94968.36
2018-05-12T07:20:57.734Z,94960.09
2018-05-12T07:23:26.342Z,94954.85
2018-05-12T07:25:54.904Z,94962.03
2018-05-12T07:28:23.528Z,94958.17
2018-05-12T07:38:32.616Z,94944.41
2018-05-12T07:41:01.194Z,94946.47
2018-05-12T07:43:29.762Z,94946.08
2018-05-12T07:45:58.348Z,94938.98
2018-05-12T07:48:26.927Z,94937.78
2018-05-12T07:50:55.510Z,94939.44
2018-05-12T07:53:24.074Z,94941.09
2018-05-12T07:55:52.628Z,94937.68
2018-05-12T07:58:21.178Z,94933.81
2018-05-12T08:00:49.765Z,94926.44
2018-05-12T08:03:18.329Z,94920.84
2018-05-12T08:05:46.625Z,94918.05
2018-05-12T08:08:15.205Z,94923.11
2018-05-12T08:10:43.767Z,94915.51
2018-05-12T08:13:12.346Z,94921.06
2018-05-12T08:15:40.916Z,94914.09
2018-05-12T08:18:09.486Z,94920.62
2018-05-12T08:20:38.123Z,94915.23
2018-05-12T08:23:06.792Z,94908.76
2018-05-12T08:25:35.688Z,94907.15
2018-05-12T08:28:04.237Z,94905.23
2018-05-12T08:30:32.801Z,94908.84
2018-05-12T08:33:01.365Z,94907.01
2018-05-12T08:35:30.062Z,94900.95
2018-05-12T08:37:59.874Z,94898.56
2018-05-12T08:40:28.476Z,94897.18
2018-05-12T08:42:57.163Z,94894.70
2018-05-12T08:45:25.724Z,94888.42
2018-05-12T08:47:54.961Z,94880.20
2018-05-12T08:50:23.519Z,94881.06
2018-05-12T08:52:52.081Z,94883.44
2018-05-12T08:55:20.691Z,94879.25
2018-05-12T08:57:49.456Z,94879.69
2018-05-12T09:00:18.075Z,94874.89
2018-05-12T09:02:45.966Z,94877.78
2018-05-12T09:05:14.615Z,94874.70
2018-05-12T09:07:43.306Z,94875.78
2018-05-12T09:10:11.863Z,94873.67
2018-05-12T09:12:40.438Z,94867.94
2018-05-12T09:15:08.999Z,94866.24
2018-05-12T09:17:37.588Z,94856.30
2018-05-12T09:20:06.175Z,94860.36
2018-05-12T09:22:34.733Z,94859.86
2018-05-12T09:25:03.526Z,94856.25
2018-05-12T09:27:32.085Z,94854.00
2018-05-12T09:30:00.638Z,94848.26
2018-05-12T09:32:29.202Z,94852.41
2018-05-12T09:34:57.764Z,94849.73
2018-05-12T09:37:31.407Z,94846.39
2018-05-12T09:39:59.972Z,94839.19
2018-05-12T09:42:28.569Z,94829.86
2018-05-12T09:44:57.385Z,94830.78
2018-05-12T09:47:25.762Z,94832.36
2018-05-12T09:49:54.347Z,94829.70
2018-05-12T09:52:22.931Z,94817.05
2018-05-12T09:54:51.662Z,94816.09
2018-05-12T09:57:20.235Z,94810.87
2018-05-12T09:59:48.801Z,94817.30
2018-05-12T10:02:17.363Z,94809.55
2018-05-12T10:04:45.924Z,94811.41
2018-05-12T10:07:14.476Z,94807.77
2018-05-12T10:09:43.138Z,94800.95
2018-05-12T10:12:11.831Z,94800.00
2018-05-12T10:14:40.384Z,94790.98
2018-05-12T10:17:08.944Z,94782.70
2018-05-12T10:19:37.564Z,94781.46
2018-05-12T10:22:05.782Z,94789.10
2018-05-12T10:24:34.344Z,94787.61
2018-05-12T10:27:02.904Z,94781.46
2018-05-12T10:29:31.490Z,94772.21
2018-05-12T10:32:00.046Z,94767.47
2018-05-12T10:34:28.608Z,94766.98
2018-05-12T10:36:57.206Z,94758.47
2018-05-12T10:39:25.764Z,94747.06
2018-05-12T10:41:54.328Z,94742.52
2018-05-12T10:44:22.887Z,94746.80
2018-05-12T10:46:51.448Z,94749.13
2018-05-12T10:49:20.004Z,94749.67
2018-05-12T10:51:48.564Z,94747.06
2018-05-12T10:54:17.142Z,94741.23
2018-05-12T10:56:45.699Z,94746.23
2018-05-12T10:59:14.250Z,94735.64
2018-05-12T11:01:42.803Z,94728.98
2018-05-12T11:04:11.380Z,94724.76
2018-05-12T11:06:39.934Z,94721.97
2018-05-12T11:09:08.528Z,94725.83
2018-05-12T11:11:37.083Z,94725.91
2018-05-12T11:14:05.692Z,94722.40
2018-05-12T11:16:34.256Z,94720.23
2018-05-12T11:19:02.807Z,94731.66
2018-05-12T11:21:31.400Z,94719.77
2018-05-12T11:24:00.142Z,94720.30
2018-05-12T11:26:28.704Z,94728.93
2018-05-12T11:28:57.306Z,94719.94
2018-05-12T11:31:25.920Z,94719.02
2018-05-12T11:33:54.544Z,94719.14
2018-05-12T11:36:23.133Z,94722.11
2018-05-12T11:38:51.866Z,94719.09
2018-05-12T11:41:20.470Z,94724.75
2018-05-12T11:43:49.026Z,94728.55
2018-05-12T11:46:17.662Z,94728.68
2018-05-12T11:48:46.398Z,94712.97
2018-05-12T11:51:14.960Z,94706.36
2018-05-12T11:53:43.526Z,94703.78
2018-05-12T11:56:12.099Z,94702.31
2018-05-12T11:58:40.658Z,94702.71
2018-05-12T12:01:09.267Z,94709.08
2018-05-12T12:03:37.849Z,94701.30
2018-05-12T12:06:06.628Z,94691.23
2018-05-12T12:08:35.194Z,94693.00
2018-05-12T12:11:03.765Z,94684.44
2018-05-12T12:13:32.327Z,94670.80
2018-05-12T12:16:00.890Z,94667.34
2018-05-12T12:18:29.446Z,94669.22
2018-05-12T12:20:57.828Z,94664.20
2018-05-12T12:23:26.432Z,94666.24
2018-05-12T12:25:55.067Z,94670.38
2018-05-12T12:28:23.691Z,94668.22
2018-05-12T12:30:52.283Z,94688.59
2018-05-12T12:33:21.692Z,94691.06
2018-05-12T12:35:50.364Z,94685.86
2018-05-12T12:38:18.950Z,94687.62
2018-05-12T12:40:47.608Z,94677.10
2018-05-12T12:43:16.195Z,94672.16
2018-05-12T12:45:44.784Z,94671.14
2018-05-12T12:48:13.355Z,94670.17
2018-05-12T12:50:41.978Z,94664.16
2018-05-12T12:53:10.523Z,94657.06
2018-05-12T12:55:39.082Z,94654.09
2018-05-12T12:58:07.655Z,94653.03
2018-05-12T13:00:36.221Z,94646.19
2018-05-12T13:03:04.778Z,94644.82
2018-05-12T13:05:33.601Z,94638.48
2018-05-12T13:08:02.165Z,94636.45
2018-05-12T13:10:30.724Z,94645.66
2018-05-12T13:12:59.282Z,94638.52
2018-05-12T13:15:27.878Z,94624.80
2018-05-12T13:17:56.460Z,94617.73
2018-05-12T13:20:25.216Z,94622.91
2018-05-12T13:22:53.790Z,94621.84
2018-05-12T13:25:22.438Z,94615.33
2018-05-12T13:27:51.252Z,94607.47
2018-05-12T13:30:19.915Z,94601.06
2018-05-12T13:32:48.606Z,94597.92
2018-05-12T13:35:17.180Z,94589.85
2018-05-12T13:37:47.873Z,94580.48
2018-05-12T13:40:16.552Z,94583.08
2018-05-12T13:42:45.302Z,94577.95
2018-05-12T13:45:14.138Z,94576.67
2018-05-12T13:47:42.688Z,94582.87
2018-05-12T13:50:10.997Z,94587.89
2018-05-12T13:52:39.568Z,94591.28
2018-05-12T13:55:08.126Z,94590.14
2018-05-12T13:58:05.004Z,94592.84
2018-05-12T14:00:33.615Z,94594.01
2018-05-12T14:03:02.188Z,94585.73
2018-05-12T14:05:30.748Z,94586.27
2018-05-12T14:07:59.360Z,94586.36
2018-05-12T14:10:28.235Z,94609.16
2018-05-12T14:12:56.845Z,94620.50
2018-05-12T14:15:25.481Z,94627.06
2018-05-12T14:17:54.048Z,94632.00
2018-05-12T14:20:22.603Z,94630.67
2018-05-12T14:22:51.161Z,94622.56
2018-05-12T14:25:19.767Z,94623.81
2018-05-12T14:27:48.333Z,94630.91
2018-05-12T14:30:17.023Z,94636.65
2018-05-12T14:32:45.590Z,94640.66
2018-05-12T14:35:16.719Z,94654.42
2018-05-12T14:37:53.209Z,94649.02
2018-05-12T14:40:21.880Z,94665.41
2018-05-12T14:42:54.603Z,94651.67
2018-05-12T14:45:23.303Z,94653.02
2018-05-12T14:47:52.033Z,94651.69
2018-05-12T14:50:20.591Z,94655.67
2018-05-12T14:52:49.136Z,94639.35
2018-05-12T14:55:17.686Z,94641.92
2018-05-12T14:57:46.233Z,94643.94
2018-05-12T15:00:14.843Z,94653.47
2018-05-12T15:02:55.212Z,94651.59
2018-05-12T15:05:23.856Z,94653.71
2018-05-12T15:07:52.404Z,94651.20
2018-05-12T15:10:21.021Z,94655.50
2018-05-12T15:12:49.593Z,94662.38
2018-05-12T15:15:18.188Z,94679.46
2018-05-12T15:17:46.753Z,94685.55
2018-05-12T15:20:15.298Z,94680.75
2018-05-12T15:22:43.846Z,94675.21
2018-05-12T15:25:12.500Z,94668.28
2018-05-12T15:27:41.073Z,94670.14
2018-05-12T15:30:11.086Z,94679.17
2018-05-12T15:32:39.701Z,94674.94
2018-05-12T15:35:08.271Z,94681.20
2018-05-12T15:37:36.836Z,94683.02
2018-05-12T15:40:05.099Z,94687.92
2018-05-12T15:42:33.791Z,94685.77
2018-05-12T15:45:02.359Z,94687.30
2018-05-12T15:47:31.017Z,94685.56
2018-05-12T15:49:59.693Z,94688.67
2018-05-12T15:52:28.487Z,94684.17
2018-05-12T15:54:57.263Z,94682.39
2018-05-12T15:57:26.181Z,94675.13
2018-05-12T15:59:54.988Z,94673.56
2018-05-12T16:02:23.586Z,94676.48
2018-05-12T16:05:09.605Z,94671.33
2018-05-12T16:07:40.284Z,94676.11
2018-05-12T16:10:10.337Z,94672.61
2018-05-12T16:12:54.974Z,94678.08
2018-05-12T16:15:39.505Z,94682.59
2018-05-12T16:18:15.213Z,94685.66
2018-05-12T16:20:43.891Z,94681.84
2018-05-12T16:23:12.444Z,94682.83
2018-05-12T16:25:41.561Z,94682.44
2018-05-12T16:28:10.156Z,94689.23
2018-05-12T16:30:38.754Z,94683.78
2018-05-12T16:33:07.365Z,94690.10
2018-05-12T16:35:36.047Z,94698.86
2018-05-12T16:38:04.808Z,94702.47
2018-05-12T16:40:33.413Z,94707.85
2018-05-12T16:43:02.114Z,94704.36
2018-05-12T16:45:31.002Z,94709.86
2018-05-12T16:48:12.551Z,94722.12
2018-05-12T16:50:43.215Z,94727.97
2018-05-12T16:53:12.614Z,94729.91
2018-05-12T16:55:48.906Z,94732.66
2018-05-12T16:58:34.559Z,94733.31
2018-05-12T17:01:05.471Z,94731.71
2018-05-12T17:03:36.522Z,94737.92
2018-05-12T17:06:08.265Z,94744.41
2018-05-12T17:08:36.944Z,94751.17
2018-05-12T17:11:05.639Z,94757.78
2018-05-12T17:13:34.227Z,94767.34
2018-05-12T17:16:02.841Z,94769.20
2018-05-12T17:18:31.403Z,94762.45
2018-05-12T17:21:00.052Z,94766.74
2018-05-12T17:23:28.602Z,94773.05
2018-05-12T17:25:57.218Z,94775.19
2018-05-12T17:28:25.827Z,94780.17
2018-05-12T17:30:54.437Z,94774.67
2018-05-12T17:33:23.071Z,94776.76
2018-05-12T17:35:51.711Z,94778.20
2018-05-12T17:38:20.353Z,94785.70
2018-05-12T17:40:49.088Z,94786.77
2018-05-12T17:43:17.687Z,94793.17
2018-05-12T17:45:46.294Z,94793.92
2018-05-12T17:48:14.865Z,94800.03
2018-05-12T17:50:43.422Z,94804.41
2018-05-12T17:53:12.077Z,94807.52
2018-05-12T17:55:40.775Z,94814.09
2018-05-12T17:58:09.336Z,94817.66
2018-05-12T18:00:39.827Z,94804.41
2018-05-12T18:03:08.389Z,94805.51
2018-05-12T18:05:36.963Z,94799.06
2018-05-12T18:08:05.532Z,94798.37
2018-05-12T18:10:34.099Z,94793.20
2018-05-12T18:13:02.401Z,94797.17
2018-05-12T18:15:30.960Z,94800.08
2018-05-12T18:17:59.560Z,94804.80
2018-05-12T18:20:28.123Z,94803.85
2018-05-12T18:22:56.686Z,94816.61
2018-05-12T18:25:25.239Z,94817.52
2018-05-12T18:27:53.793Z,94816.16
2018-05-12T18:30:27.581Z,94821.53
2018-05-12T18:32:56.590Z,94823.44
2018-05-12T18:35:25.555Z,94815.73
2018-05-12T18:37:54.481Z,94816.48
2018-05-12T18:40:23.097Z,94814.86
2018-05-12T18:42:51.713Z,94814.56
2018-05-12T18:45:39.899Z,94803.91
2018-05-12T18:48:08.684Z,94805.54
2018-05-12T18:50:37.509Z,94804.55
2018-05-12T18:53:06.275Z,94793.83
2018-05-12T18:55:34.853Z,94793.74
2018-05-12T18:58:03.464Z,94786.51
2018-05-12T19:00:32.028Z,94784.06
2018-05-12T19:03:00.591Z,94774.41
2018-05-12T19:05:29.147Z,94766.80
2018-05-12T19:07:58.970Z,94762.95
2018-05-12T19:10:27.532Z,94763.92
2018-05-12T19:12:56.091Z,94757.25
2018-05-12T19:15:24.663Z,94753.52
2018-05-12T19:17:53.246Z,94751.34
2018-05-12T19:20:21.804Z,94750.84
2018-05-12T19:22:50.349Z,94748.61
2018-05-12T19:25:18.908Z,94743.06
2018-05-12T19:27:47.514Z,94742.31
2018-05-12T19:30:15.828Z,94732.91
2018-05-12T19:32:44.408Z,94736.16
2018-05-12T19:35:13.466Z,94731.91
2018-05-12T19:37:44.976Z,94732.25
2018-05-12T19:40:13.573Z,94739.33
2018-05-12T19:42:44.388Z,94745.30
2018-05-12T19:45:12.994Z,94741.39
2018-05-12T19:47:41.596Z,94740.95
2018-05-12T19:50:10.169Z,94746.25
2018-05-12T19:52:38.767Z,94757.75
2018-05-12T19:55:06.937Z,94758.86
2018-05-12T19:57:35.496Z,94762.61
2018-05-12T20:00:05.282Z,94752.68
2018-05-12T20:02:33.849Z,94752.55
2018-05-12T20:05:02.418Z,94754.22
2018-05-12T20:07:30.984Z,94756.73
2018-05-12T20:09:59.576Z,94755.05
2018-05-12T20:12:28.228Z,94762.89
